createdAt,value
2022-08-31T00:00:33.925Z,101604.34
2022-08-31T00:03:00.492Z,101607.06
2022-08-31T00:05:26.841Z,101607.06
2022-08-31T00:07:53.307Z,101607.31
2022-08-31T00:10:32.636Z,101600.78
2022-08-31T00:13:03.525Z,101605.16
2022-08-31T00:15:30.417Z,101603.50
2022-08-31T00:17:56.877Z,101608.09
2022-08-31T00:20:33.146Z,101610.28
2022-08-31T00:23:00.498Z,101606.47
2022-08-31T00:25:26.857Z,101599.97
2022-08-31T00:27:53.257Z,101605.63
2022-08-31T00:30:19.590Z,101607.56
2022-08-31T00:32:46.137Z,101605.63
2022-08-31T00:35:14.583Z,101596.94
2022-08-31T00:37:40.913Z,101593.13
2022-08-31T00:40:07.409Z,101594.22
2022-08-31T00:42:33.729Z,101593.97
2022-08-31T00:45:00.093Z,101598.81
2022-08-31T00:47:26.489Z,101597.75
2022-08-31T00:49:53.057Z,101598.81
2022-08-31T00:52:19.517Z,101606.97
2022-08-31T00:54:45.856Z,101610.75
2022-08-31T00:57:12.232Z,101603.69
2022-08-31T00:59:38.615Z,101602.84
2022-08-31T01:02:04.968Z,101609.69
2022-08-31T01:04:31.398Z,101603.09
2022-08-31T01:06:57.957Z,101608.28
2022-08-31T01:09:24.536Z,101600.38
2022-08-31T01:11:51.066Z,101606.66
2022-08-31T01:14:17.529Z,101600.13
2022-08-31T01:16:44.028Z,101600.38
2022-08-31T01:19:10.465Z,101603.09
2022-08-31T01:21:36.836Z,101605.56
2022-08-31T01:24:03.172Z,101601.22
2022-08-31T01:26:29.943Z,101605.81
2022-08-31T01:28:56.402Z,101607.97
2022-08-31T01:31:22.738Z,101608.81
2022-08-31T01:33:49.136Z,101603.38
2022-08-31T01:36:16.312Z,101615.88
2022-08-31T01:38:42.823Z,101606.91
2022-08-31T01:41:09.134Z,101607.13
2022-08-31T01:43:35.606Z,101607.13
2022-08-31T01:46:02.145Z,101603.38
2022-08-31T01:48:29.074Z,101609.59
2022-08-31T01:50:55.514Z,101608.81
2022-08-31T01:53:21.902Z,101614.25
2022-08-31T01:55:48.227Z,101607.13
2022-08-31T01:58:14.712Z,101605.50
2022-08-31T02:00:41.095Z,101613.66
2022-08-31T02:03:07.517Z,101609.06
2022-08-31T02:05:33.815Z,101602.22
2022-08-31T02:08:00.599Z,101603.88
2022-08-31T02:10:26.923Z,101604.66
2022-08-31T02:12:53.353Z,101597.59
2022-08-31T02:15:20.231Z,101603.03
2022-08-31T02:17:46.521Z,101603.88
2022-08-31T02:20:12.864Z,101603.28
2022-08-31T02:22:39.843Z,101603.03
2022-08-31T02:25:06.177Z,101601.38
2022-08-31T02:27:34.913Z,101603.03
2022-08-31T02:30:01.393Z,101606.81
2022-08-31T02:32:27.886Z,101601.38
2022-08-31T02:34:54.415Z,101607.91
2022-08-31T02:37:21.076Z,101607.91
2022-08-31T02:39:47.457Z,101608.69
2022-08-31T02:42:15.698Z,101601.63
2022-08-31T02:44:44.744Z,101607.91
2022-08-31T02:47:11.267Z,101606.00
2022-08-31T02:49:37.565Z,101603.50
2022-08-31T02:52:03.977Z,101599.16
2022-08-31T02:54:30.330Z,101600.81
2022-08-31T02:56:56.709Z,101598.34
2022-08-31T02:59:23.898Z,101601.06
2022-08-31T03:01:50.427Z,101593.50
2022-08-31T03:04:16.957Z,101591.03
2022-08-31T03:06:43.557Z,101597.28
2022-08-31T03:09:10.116Z,101593.19
2022-08-31T03:11:36.608Z,101604.59
2022-08-31T03:14:04.573Z,101600.81
2022-08-31T03:16:31.104Z,101602.72
2022-08-31T03:18:57.461Z,101604.59
2022-08-31T03:21:23.884Z,101600.25
2022-08-31T03:23:50.301Z,101605.13
2022-08-31T03:26:17.300Z,101601.31
2022-08-31T03:28:43.636Z,101607.56
2022-08-31T03:31:09.961Z,101614.06
2022-08-31T03:33:36.404Z,101607.00
2022-08-31T03:36:02.725Z,101605.34
2022-08-31T03:38:29.036Z,101603.19
2022-08-31T03:40:55.641Z,101604.03
2022-08-31T03:43:21.965Z,101609.47
2022-08-31T03:45:48.334Z,101612.19
2022-08-31T03:48:14.825Z,101612.75
2022-08-31T03:50:41.185Z,101615.69
2022-08-31T03:53:07.645Z,101613.25
2022-08-31T03:55:34.042Z,101614.91
2022-08-31T03:58:00.360Z,101614.91
2022-08-31T04:00:26.680Z,101624.13
2022-08-31T04:02:54.917Z,101620.88
2022-08-31T04:05:21.339Z,101617.22
2022-08-31T04:07:48.104Z,101622.44
2022-08-31T04:10:14.537Z,101620.78
2022-08-31T04:12:41.212Z,101613.72
2022-08-31T04:15:07.608Z,101617.84
2022-08-31T04:17:33.910Z,101614.50
2022-08-31T04:20:00.337Z,101623.28
2022-08-31T04:22:26.852Z,101622.44
2022-08-31T04:24:53.255Z,101627.88
2022-08-31T04:27:19.707Z,101622.09
2022-08-31T04:29:46.219Z,101624.56
2022-08-31T04:32:12.703Z,101636.25
2022-08-31T04:34:39.185Z,101630.00
2022-08-31T04:37:06.009Z,101638.41
2022-08-31T04:39:33.214Z,101641.47
2022-08-31T04:41:59.533Z,101637.31
2022-08-31T04:44:26.214Z,101638.63
2022-08-31T04:46:52.523Z,101634.84
2022-08-31T04:49:19.174Z,101634.59
2022-08-31T04:51:45.674Z,101642.19
2022-08-31T04:54:11.993Z,101649.25
2022-08-31T04:56:38.425Z,101648.41
2022-08-31T04:59:04.826Z,101646.53
2022-08-31T05:01:36.131Z,101647.88
2022-08-31T05:04:09.666Z,101645.97
2022-08-31T05:06:36.095Z,101647.88
2022-08-31T05:09:02.400Z,101652.47
2022-08-31T05:11:29.002Z,101654.94
2022-08-31T05:13:55.537Z,101656.84
2022-08-31T05:16:21.860Z,101652.69
2022-08-31T05:18:48.461Z,101654.38
2022-08-31T05:21:15.121Z,101653.69
2022-08-31T05:23:41.702Z,101652.94
2022-08-31T05:26:08.543Z,101654.25
2022-08-31T05:28:34.991Z,101654.38
2022-08-31T05:31:01.982Z,101661.13
2022-08-31T05:33:28.391Z,101652.13
2022-08-31T05:35:54.826Z,101649.41
2022-08-31T05:38:21.154Z,101654.25
2022-08-31T05:40:47.548Z,101657.81
2022-08-31T05:43:13.900Z,101650.81
2022-08-31T05:45:40.286Z,101657.09
2022-08-31T05:48:06.633Z,101658.72
2022-08-31T05:50:33.082Z,101650.56
2022-08-31T05:53:00.471Z,101664.63
2022-08-31T05:55:26.814Z,101663.56
2022-08-31T05:57:53.177Z,101666.28
2022-08-31T06:00:19.737Z,101659.22
2022-08-31T06:02:51.155Z,101662.50
2022-08-31T06:05:20.164Z,101668.75
2022-08-31T06:07:46.586Z,101663.31
2022-08-31T06:10:13.114Z,101666.88
2022-08-31T06:12:40.377Z,101674.41
2022-08-31T06:15:06.734Z,101664.41
2022-08-31T06:17:33.505Z,101667.69
2022-08-31T06:19:59.796Z,101671.22
2022-08-31T06:22:26.097Z,101672.06
2022-08-31T06:24:52.864Z,101673.13
2022-08-31T06:27:19.525Z,101674.25
2022-08-31T06:29:45.834Z,101685.63
2022-08-31T06:32:12.152Z,101681.84
2022-08-31T06:34:38.560Z,101688.34
2022-08-31T06:37:06.046Z,101690.22
2022-08-31T06:39:32.519Z,101694.59
2022-08-31T06:41:59.014Z,101692.88
2022-08-31T06:44:25.408Z,101694.03
2022-08-31T06:46:51.738Z,101695.09
2022-08-31T06:49:18.221Z,101700.53
2022-08-31T06:51:44.586Z,101700.28
2022-08-31T06:54:28.576Z,101703.25
2022-08-31T06:56:56.083Z,101693.44
2022-08-31T06:59:26.455Z,101691.31
2022-08-31T07:01:55.033Z,101700.00
2022-08-31T07:04:21.584Z,101699.94
2022-08-31T07:06:49.977Z,101700.75
2022-08-31T07:09:16.299Z,101710.56
2022-08-31T07:11:44.820Z,101707.28
2022-08-31T07:14:11.433Z,101708.31
2022-08-31T07:16:37.829Z,101697.47
2022-08-31T07:19:04.454Z,101703.13
2022-08-31T07:21:31.288Z,101712.94
2022-08-31T07:23:57.706Z,101716.69
2022-08-31T07:26:24.202Z,101707.91
2022-08-31T07:28:50.730Z,101711.78
2022-08-31T07:31:17.261Z,101714.75
2022-08-31T07:33:45.898Z,101716.63
2022-08-31T07:36:12.494Z,101714.50
2022-08-31T07:38:38.859Z,101723.44
2022-08-31T07:41:05.280Z,101717.22
2022-08-31T07:43:34.554Z,101725.91
2022-08-31T07:46:01.034Z,101722.13
2022-08-31T07:48:27.498Z,101726.75
2022-08-31T07:50:53.857Z,101730.28
2022-08-31T07:53:22.982Z,101730.28
2022-08-31T07:55:51.752Z,101735.72
2022-08-31T07:58:18.261Z,101730.88
2022-08-31T08:00:44.710Z,101730.28
2022-08-31T08:03:11.256Z,101740.09
2022-08-31T08:05:37.715Z,101743.84
2022-08-31T08:08:04.241Z,101739.50
2022-08-31T08:10:30.680Z,101740.91
2022-08-31T08:12:57.083Z,101739.25
2022-08-31T08:15:23.556Z,101737.63
2022-08-31T08:17:49.869Z,101739.03
2022-08-31T08:20:17.334Z,101741.13
2022-08-31T08:23:00.457Z,101743.06
2022-08-31T08:25:27.031Z,101737.63
2022-08-31T08:27:53.730Z,101736.78
2022-08-31T08:30:21.041Z,101726.75
2022-08-31T08:32:48.226Z,101725.91
2022-08-31T08:35:14.561Z,101724.84
2022-08-31T08:37:57.082Z,101733.59
2022-08-31T08:40:24.002Z,101730.88
2022-08-31T08:42:50.396Z,101734.91
2022-08-31T08:45:16.712Z,101728.63
2022-08-31T08:47:47.602Z,101732.19
2022-08-31T08:50:14.015Z,101733.00
2022-08-31T08:52:41.293Z,101727.56
2022-08-31T08:55:07.607Z,101734.06
2022-08-31T08:57:33.988Z,101728.63
2022-08-31T09:00:00.350Z,101733.00
2022-08-31T09:02:27.906Z,101731.34
2022-08-31T09:04:54.276Z,101732.19
2022-08-31T09:07:20.660Z,101736.53
2022-08-31T09:09:47.067Z,101729.72
2022-08-31T09:12:14.957Z,101737.63
2022-08-31T09:14:41.467Z,101731.13
2022-08-31T09:17:07.764Z,101733.00
2022-08-31T09:19:34.202Z,101735.72
2022-08-31T09:22:00.826Z,101732.19
2022-08-31T09:24:27.214Z,101725.91
2022-08-31T09:26:53.628Z,101729.22
2022-08-31T09:29:20.019Z,101725.69
2022-08-31T09:31:46.496Z,101719.19
2022-08-31T09:34:12.972Z,101722.13
2022-08-31T09:36:39.358Z,101712.09
2022-08-31T09:39:05.931Z,101718.38
2022-08-31T09:41:32.502Z,101719.41
2022-08-31T09:43:58.846Z,101718.38
2022-08-31T09:46:25.272Z,101732.75
2022-08-31T09:48:51.626Z,101717.53
2022-08-31T09:51:18.011Z,101720.25
2022-08-31T09:53:44.581Z,101721.09
2022-08-31T09:56:12.690Z,101717.53
2022-08-31T09:58:39.096Z,101721.09
2022-08-31T10:01:05.501Z,101713.75
2022-08-31T10:03:31.994Z,101707.50
2022-08-31T10:05:58.646Z,101708.31
2022-08-31T10:08:25.030Z,101708.31
2022-08-31T10:10:51.397Z,101710.00
2022-08-31T10:13:17.789Z,101711.03
2022-08-31T10:15:44.520Z,101711.03
2022-08-31T10:18:10.962Z,101708.31
2022-08-31T10:20:37.323Z,101710.22
2022-08-31T10:23:03.856Z,101699.38
2022-08-31T10:25:30.210Z,101698.53
2022-08-31T10:27:56.585Z,101705.84
2022-08-31T10:30:22.954Z,101703.13
2022-08-31T10:32:49.297Z,101698.53
2022-08-31T10:35:15.805Z,101701.00
2022-08-31T10:37:42.302Z,101696.97
2022-08-31T10:40:08.732Z,101688.50
2022-08-31T10:42:35.179Z,101689.00
2022-08-31T10:45:01.508Z,101687.91
2022-08-31T10:47:33.947Z,101682.16
2022-08-31T10:50:00.961Z,101675.91
2022-08-31T10:52:27.425Z,101677.22
2022-08-31T10:54:53.672Z,101673.19
2022-08-31T10:57:21.740Z,101676.41
2022-08-31T10:59:54.078Z,101667.19
2022-08-31T11:02:22.361Z,101670.47
2022-08-31T11:04:49.065Z,101659.38
2022-08-31T11:07:15.656Z,101674.03
2022-08-31T11:09:42.141Z,101678.38
2022-08-31T11:12:08.465Z,101673.78
2022-08-31T11:14:34.901Z,101668.38
2022-08-31T11:17:01.363Z,101663.72
2022-08-31T11:19:27.915Z,101662.69
2022-08-31T11:21:56.350Z,101666.53
2022-08-31T11:24:22.740Z,101672.78
2022-08-31T11:26:50.028Z,101667.94
2022-08-31T11:29:16.536Z,101667.94
2022-08-31T11:31:42.978Z,101667.09
2022-08-31T11:34:17.446Z,101662.50
2022-08-31T11:36:44.336Z,101659.81
2022-08-31T11:39:10.676Z,101661.19
2022-08-31T11:41:36.994Z,101666.63
2022-08-31T11:44:03.330Z,101666.38
2022-08-31T11:46:29.906Z,101657.41
2022-08-31T11:48:56.526Z,101661.75
2022-08-31T11:51:23.217Z,101659.88
2022-08-31T11:53:49.536Z,101660.47
2022-08-31T11:56:15.864Z,101650.09
2022-08-31T11:58:42.170Z,101655.03
2022-08-31T12:01:08.561Z,101651.53
2022-08-31T12:03:35.169Z,101647.94
2022-08-31T12:06:01.838Z,101639.78
2022-08-31T12:08:28.214Z,101637.06
2022-08-31T12:10:54.627Z,101641.22
2022-08-31T12:13:21.179Z,101637.06
2022-08-31T12:15:49.968Z,101625.16
2022-08-31T12:18:16.334Z,101622.44
2022-08-31T12:20:42.888Z,101628.72
2022-08-31T12:23:09.406Z,101625.75
2022-08-31T12:25:35.894Z,101624.13
2022-08-31T12:28:02.216Z,101624.94
2022-08-31T12:30:28.630Z,101617.84
2022-08-31T12:32:57.216Z,101628.72
2022-08-31T12:35:23.602Z,101618.94
2022-08-31T12:37:49.971Z,101611.59
2022-08-31T12:40:16.427Z,101612.44
2022-08-31T12:42:42.870Z,101608.88
2022-08-31T12:45:12.620Z,101607.81
2022-08-31T12:47:39.226Z,101622.44
2022-08-31T12:50:05.669Z,101614.50
2022-08-31T12:52:32.561Z,101619.75
2022-08-31T12:54:58.945Z,101617.63
2022-08-31T12:57:26.903Z,101615.97
2022-08-31T13:00:01.025Z,101612.44
2022-08-31T13:02:28.437Z,101616.78
2022-08-31T13:04:54.860Z,101607.81
2022-08-31T13:07:21.491Z,101605.13
2022-08-31T13:09:47.753Z,101607.81
2022-08-31T13:12:14.325Z,101607.81
2022-08-31T13:14:40.747Z,101603.19
2022-08-31T13:17:07.224Z,101600.47
2022-08-31T13:19:33.666Z,101596.13
2022-08-31T13:22:00.221Z,101594.25
2022-08-31T13:24:26.673Z,101590.69
2022-08-31T13:26:53.034Z,101593.41
2022-08-31T13:29:19.393Z,101588.81
2022-08-31T13:31:46.478Z,101595.06
2022-08-31T13:34:13.079Z,101590.69
2022-08-31T13:36:39.464Z,101591.25
2022-08-31T13:39:05.832Z,101593.97
2022-08-31T13:41:39.480Z,101590.47
2022-08-31T13:44:06.052Z,101589.38
2022-08-31T13:46:42.374Z,101587.75
2022-08-31T13:49:10.037Z,101591.03
2022-08-31T13:51:38.392Z,101586.66
2022-08-31T13:54:04.968Z,101586.66
2022-08-31T13:56:34.894Z,101586.66
2022-08-31T13:59:01.487Z,101582.88
2022-08-31T14:01:27.894Z,101579.34
2022-08-31T14:03:54.494Z,101578.28
2022-08-31T14:06:20.794Z,101582.88
2022-08-31T14:08:47.157Z,101582.88
2022-08-31T14:11:13.823Z,101580.16
2022-08-31T14:13:40.126Z,101586.66
2022-08-31T14:16:06.480Z,101581.78
2022-08-31T14:18:32.885Z,101580.16
2022-08-31T14:21:19.449Z,101586.41
2022-08-31T14:23:45.643Z,101587.22
2022-08-31T14:26:12.062Z,101581.00
2022-08-31T14:28:40.378Z,101579.91
2022-08-31T14:31:06.776Z,101584.50
2022-08-31T14:33:33.243Z,101579.91
2022-08-31T14:35:59.592Z,101580.75
2022-08-31T14:38:26.335Z,101576.34
2022-08-31T14:40:53.710Z,101580.75
2022-08-31T14:43:21.034Z,101573.66
2022-08-31T14:45:47.724Z,101582.88
2022-08-31T14:48:14.096Z,101575.56
2022-08-31T14:50:40.507Z,101579.06
2022-08-31T14:53:06.900Z,101581.00
2022-08-31T14:55:33.238Z,101580.16
2022-08-31T14:57:59.608Z,101576.34
2022-08-31T15:00:27.294Z,101575.56
2022-08-31T15:02:53.832Z,101575.56
2022-08-31T15:05:20.285Z,101570.13
2022-08-31T15:07:47.249Z,101570.13
2022-08-31T15:10:13.731Z,101571.19
2022-08-31T15:12:40.327Z,101564.69
2022-08-31T15:15:06.800Z,101563.63
2022-08-31T15:17:33.215Z,101576.34
2022-08-31T15:19:59.751Z,101570.13
2022-08-31T15:22:26.380Z,101570.94
2022-08-31T15:24:52.867Z,101563.63
2022-08-31T15:27:19.192Z,101565.25
2022-08-31T15:29:45.540Z,101572.59
2022-08-31T15:32:12.021Z,101576.13
2022-08-31T15:34:38.387Z,101574.22
2022-08-31T15:37:04.716Z,101568.81
2022-08-31T15:39:31.082Z,101567.16
2022-08-31T15:41:57.462Z,101570.69
2022-08-31T15:44:23.819Z,101567.97
2022-08-31T15:46:50.201Z,101569.88
2022-08-31T15:49:16.508Z,101562.53
2022-08-31T15:51:42.966Z,101563.63
2022-08-31T15:54:21.814Z,101561.72
2022-08-31T15:56:49.126Z,101561.50
2022-08-31T15:59:15.496Z,101555.22
2022-08-31T16:01:41.958Z,101555.78
2022-08-31T16:04:08.388Z,101548.72
2022-08-31T16:06:35.317Z,101551.69
2022-08-31T16:09:01.705Z,101554.16
2022-08-31T16:11:28.265Z,101549.53
2022-08-31T16:13:54.702Z,101547.63
2022-08-31T16:16:21.195Z,101546.00
2022-08-31T16:18:47.685Z,101548.72
2022-08-31T16:21:14.003Z,101537.84
2022-08-31T16:23:40.419Z,101543.28
2022-08-31T16:26:07.552Z,101546.00
2022-08-31T16:28:34.666Z,101544.91
2022-08-31T16:31:01.045Z,101538.69
2022-08-31T16:33:27.420Z,101544.91
2022-08-31T16:35:53.936Z,101544.91
2022-08-31T16:38:20.488Z,101542.19
2022-08-31T16:40:47.071Z,101543.03
2022-08-31T16:43:13.449Z,101535.97
2022-08-31T16:45:40.025Z,101543.28
2022-08-31T16:48:06.433Z,101547.63
2022-08-31T16:50:32.814Z,101540.56
2022-08-31T16:52:59.179Z,101541.41
2022-08-31T16:55:25.538Z,101547.63
2022-08-31T16:57:52.138Z,101537.03
2022-08-31T17:00:18.522Z,101536.78
2022-08-31T17:02:44.956Z,101542.47
2022-08-31T17:05:11.504Z,101540.56
2022-08-31T17:07:37.897Z,101537.03
2022-08-31T17:10:08.335Z,101546.00
2022-08-31T17:12:34.960Z,101546.00
2022-08-31T17:15:01.378Z,101547.06
2022-08-31T17:17:27.868Z,101556.84
2022-08-31T17:19:54.452Z,101551.44
2022-08-31T17:22:25.695Z,101556.84
2022-08-31T17:24:52.396Z,101550.63
2022-08-31T17:27:18.861Z,101553.34
2022-08-31T17:29:45.497Z,101552.50
2022-08-31T17:32:12.230Z,101550.63
2022-08-31T17:34:38.692Z,101551.69
2022-08-31T17:37:05.000Z,101548.97
2022-08-31T17:39:32.077Z,101550.88
2022-08-31T17:41:58.700Z,101556.31
2022-08-31T17:44:25.083Z,101563.38
2022-08-31T17:46:51.928Z,101557.09
2022-08-31T17:49:19.435Z,101561.50
2022-08-31T17:51:46.003Z,101563.38
2022-08-31T17:54:12.666Z,101560.66
2022-08-31T17:56:39.161Z,101571.50
2022-08-31T17:59:08.297Z,101568.81
2022-08-31T18:01:35.474Z,101568.81
2022-08-31T18:04:02.080Z,101570.69
2022-08-31T18:06:28.426Z,101571.75
2022-08-31T18:08:54.936Z,101579.66
2022-08-31T18:11:21.468Z,101576.13
2022-08-31T18:13:51.704Z,101579.66
2022-08-31T18:16:20.203Z,101579.66
2022-08-31T18:18:46.614Z,101584.25
2022-08-31T18:21:12.959Z,101589.69
2022-08-31T18:23:39.298Z,101588.88
2022-08-31T18:26:06.286Z,101597.84
2022-08-31T18:28:33.235Z,101593.25
2022-08-31T18:30:59.894Z,101595.13
2022-08-31T18:33:26.531Z,101599.75
2022-08-31T18:35:53.030Z,101601.38
2022-08-31T18:38:19.795Z,101603.88
2022-08-31T18:40:46.320Z,101604.09
2022-08-31T18:43:12.759Z,101608.94
2022-08-31T18:45:39.886Z,101607.06
2022-08-31T18:48:25.321Z,101607.31
2022-08-31T18:50:52.177Z,101609.78
2022-08-31T18:53:28.638Z,101605.19
2022-08-31T18:55:56.331Z,101609.53
2022-08-31T18:58:22.748Z,101611.41
2022-08-31T19:00:49.464Z,101607.31
2022-08-31T19:03:16.005Z,101610.63
2022-08-31T19:05:42.528Z,101610.38
2022-08-31T19:08:09.227Z,101611.19
2022-08-31T19:10:35.614Z,101605.19
2022-08-31T19:13:02.293Z,101603.03
2022-08-31T19:15:33.589Z,101615.53
2022-08-31T19:18:02.617Z,101606.34
2022-08-31T19:20:29.376Z,101606.34
2022-08-31T19:22:57.008Z,101608.81
2022-08-31T19:25:23.562Z,101608.81
2022-08-31T19:27:50.152Z,101609.59
2022-08-31T19:30:16.481Z,101612.31
2022-08-31T19:32:42.829Z,101617.75
2022-08-31T19:35:09.432Z,101614.25
2022-08-31T19:37:35.977Z,101629.69
2022-08-31T19:40:02.430Z,101625.66
2022-08-31T19:45:23.237Z,101622.94
2022-08-31T19:47:50.078Z,101622.94
2022-08-31T19:50:16.555Z,101618.91
2022-08-31T19:52:43.056Z,101628.94
2022-08-31T19:55:09.743Z,101627.88
2022-08-31T19:57:36.543Z,101623.25
2022-08-31T20:00:03.548Z,101622.69
2022-08-31T20:02:30.842Z,101621.63
2022-08-31T20:04:57.305Z,101619.75
2022-08-31T20:07:23.786Z,101620.53
2022-08-31T20:09:53.555Z,101627.38
2022-08-31T20:12:19.990Z,101625.50
2022-08-31T20:14:46.493Z,101621.13
2022-08-31T20:17:13.093Z,101622.22
2022-08-31T20:19:39.570Z,101630.09
2022-08-31T20:22:06.176Z,101630.38
2022-08-31T20:24:32.636Z,101630.38
2022-08-31T20:27:02.000Z,101629.28
2022-08-31T20:29:35.792Z,101630.91
2022-08-31T20:32:03.200Z,101630.09
2022-08-31T20:34:29.999Z,101634.72
2022-08-31T20:37:00.636Z,101628.19
2022-08-31T20:39:27.822Z,101628.44
2022-08-31T20:41:54.227Z,101630.09
2022-08-31T20:44:20.608Z,101633.41
2022-08-31T20:46:47.240Z,101636.94
2022-08-31T20:49:13.590Z,101630.69
2022-08-31T20:51:41.204Z,101629.84
2022-08-31T20:54:07.782Z,101641.28
2022-08-31T20:56:36.096Z,101639.38
2022-08-31T20:59:02.620Z,101638.59
2022-08-31T21:01:28.979Z,101640.47
2022-08-31T21:03:55.567Z,101642.94
2022-08-31T21:06:21.937Z,101641.06
2022-08-31T21:08:48.368Z,101642.09
2022-08-31T21:11:14.722Z,101651.09
2022-08-31T21:13:41.166Z,101652.97
2022-08-31T21:16:07.716Z,101657.34
2022-08-31T21:18:34.073Z,101648.38
2022-08-31T21:21:01.243Z,101655.44
2022-08-31T21:23:27.833Z,101654.34
2022-08-31T21:25:54.426Z,101663.59
2022-08-31T21:28:20.730Z,101658.81
2022-08-31T21:30:47.204Z,101666.13
2022-08-31T21:33:13.660Z,101659.56
2022-08-31T21:35:40.034Z,101661.38
2022-08-31T21:38:06.429Z,101668.13
2022-08-31T21:40:34.091Z,101655.09
2022-08-31T21:43:00.526Z,101664.81
2022-08-31T21:45:27.057Z,101659.84
2022-08-31T21:47:53.603Z,101658.78
2022-08-31T21:50:19.918Z,101666.44
2022-08-31T21:52:46.424Z,101667.59
2022-08-31T21:55:12.729Z,101668.66
2022-08-31T21:57:39.399Z,101664.63
2022-08-31T22:00:05.724Z,101672.53
2022-08-31T22:02:32.311Z,101667.91
2022-08-31T22:04:58.890Z,101667.41
2022-08-31T22:07:25.439Z,101670.97
2022-08-31T22:09:53.021Z,101670.13
2022-08-31T22:12:20.444Z,101670.97
2022-08-31T22:14:46.776Z,101665.53
2022-08-31T22:17:15.011Z,101666.34
2022-08-31T22:19:42.633Z,101664.44
2022-08-31T22:22:09.211Z,101671.75
2022-08-31T22:24:38.980Z,101674.22
2022-08-31T22:27:06.551Z,101669.88
2022-08-31T22:29:32.843Z,101671.75
2022-08-31T22:31:59.302Z,101671.75
2022-08-31T22:34:25.592Z,101669.03
2022-08-31T22:36:51.899Z,101676.13
2022-08-31T22:39:20.451Z,101668.25
2022-08-31T22:41:46.816Z,101675.31
2022-08-31T22:44:13.189Z,101676.88
2022-08-31T22:46:39.674Z,101675.50
2022-08-31T22:49:06.241Z,101677.69
2022-08-31T22:51:32.568Z,101667.34
2022-08-31T22:53:58.931Z,101673.28
2022-08-31T22:56:25.333Z,101671.94
2022-08-31T22:58:51.957Z,101672.19
2022-08-31T23:01:18.363Z,101668.66
2022-08-31T23:03:44.888Z,101673.28
2022-08-31T23:06:11.325Z,101673.84
2022-08-31T23:08:37.693Z,101673.03
2022-08-31T23:11:04.045Z,101675.50
2022-08-31T23:13:30.360Z,101671.16
2022-08-31T23:15:56.736Z,101673.03
2022-08-31T23:18:23.118Z,101673.03
2022-08-31T23:20:49.426Z,101669.47
2022-08-31T23:23:15.753Z,101669.47
2022-08-31T23:25:42.135Z,101670.31
2022-08-31T23:28:08.540Z,101669.47
2022-08-31T23:30:34.897Z,101667.84
2022-08-31T23:33:01.724Z,101667.00
2022-08-31T23:35:28.078Z,101672.19
2022-08-31T23:37:55.421Z,101669.72
2022-08-31T23:40:21.840Z,101661.56
2022-08-31T23:42:48.241Z,101659.94
2022-08-31T23:45:14.810Z,101659.38
2022-08-31T23:47:41.486Z,101665.59
2022-08-31T23:50:07.852Z,101662.09
2022-08-31T23:52:34.222Z,101661.25
2022-08-31T23:55:00.681Z,101661.25
2022-08-31T23:57:31.819Z,101663.97
